Time;durP1;ratioP1;P1;durP2;ratioP2;P2;SDS_P1;SDS_P2;PMS_P1;PMS_P2;Temp;Humidity;BMP_temperature;BMP_pressure;BME280_temperature;BME280_humidity;BME280_pressure;Samples;Min_cycle;Max_cycle;Signal;HPM_P1;HPM_P2
2021/04/02 00:01:09;;;;;;;12.70;4.07;;;;;;;;;;4974211;28;20531;-73
2021/04/02 00:03:37;;;;;;;9.90;4.03;;;;;;;;;;4974350;28;20368;-74
2021/04/02 00:06:04;;;;;;;7.90;3.35;;;;;;;;;;4974037;28;20457;-77
2021/04/02 00:08:30;;;;;;;10.63;4.00;;;;;;;;;;4976005;28;20033;-74
2021/04/02 00:10:58;;;;;;;9.77;3.85;;;;;;;;;;4977872;28;20370;-75
2021/04/02 00:13:33;;;;;;;7.93;3.45;;;;;;;;;;4995303;28;20057;-79
2021/04/02 00:15:59;;;;;;;8.75;3.67;;;;;;;;;;4977836;28;20134;-74
2021/04/02 00:18:26;;;;;;;9.02;4.00;;;;;;;;;;4977544;28;20046;-73
2021/04/02 00:20:53;;;;;;;11.02;3.65;;;;;;;;;;4995095;28;20023;-74
2021/04/02 00:23:20;;;;;;;8.18;3.65;;;;;;;;;;4995218;28;20058;-73
2021/04/02 00:25:46;;;;;;;9.90;3.70;;;;;;;;;;4995195;28;20022;-74
2021/04/02 00:28:12;;;;;;;10.80;4.18;;;;;;;;;;4994911;28;20475;-72
2021/04/02 00:30:41;;;;;;;8.32;4.30;;;;;;;;;;4994873;28;20369;-77
2021/04/02 00:33:07;;;;;;;7.60;3.65;;;;;;;;;;4994917;28;20054;-73
2021/04/02 00:35:33;;;;;;;11.43;3.75;;;;;;;;;;4994899;28;20026;-73
2021/04/02 00:38:00;;;;;;;7.38;3.67;;;;;;;;;;4994692;28;20106;-74
2021/04/02 00:40:30;;;;;;;12.68;4.55;;;;;;;;;;4994585;28;20017;-75
2021/04/02 00:42:56;;;;;;;8.80;3.83;;;;;;;;;;4977338;28;20023;-74
2021/04/02 00:45:23;;;;;;;8.98;4.20;;;;;;;;;;4977171;28;20021;-73
2021/04/02 00:47:50;;;;;;;7.28;3.75;;;;;;;;;;4994487;28;20058;-73
2021/04/02 00:50:34;;;;;;;9.95;3.90;;;;;;;;;;4994502;28;20022;-74
2021/04/02 00:53:00;;;;;;;9.07;3.92;;;;;;;;;;4977058;28;20030;-73
2021/04/02 00:55:27;;;;;;;7.32;3.80;;;;;;;;;;4994629;28;20502;-73
2021/04/02 00:57:53;;;;;;;11.95;4.30;;;;;;;;;;4994284;28;20035;-73
2021/04/02 01:00:19;;;;;;;7.35;3.70;;;;;;;;;;4994260;28;20049;-73
2021/04/02 01:02:45;;;;;;;7.25;3.75;;;;;;;;;;4976947;28;20027;-73
2021/04/02 01:05:14;;;;;;;7.93;3.70;;;;;;;;;;4994310;28;20030;-73
2021/04/02 01:07:40;;;;;;;11.48;3.70;;;;;;;;;;4976643;28;20089;-74
2021/04/02 01:10:08;;;;;;;12.52;4.07;;;;;;;;;;4994282;28;20073;-75
2021/04/02 01:12:34;;;;;;;10.77;3.90;;;;;;;;;;4993757;28;20085;-73
2021/04/02 01:15:01;;;;;;;9.02;4.00;;;;;;;;;;4993930;28;20438;-75
2021/04/02 01:17:28;;;;;;;10.48;4.28;;;;;;;;;;4994525;28;20043;-74
2021/04/02 01:19:55;;;;;;;7.68;3.85;;;;;;;;;;4993392;28;20089;-77
2021/04/02 01:22:28;;;;;;;9.05;4.20;;;;;;;;;;4976347;28;20049;-76
2021/04/02 01:24:54;;;;;;;9.75;4.32;;;;;;;;;;4976354;28;20034;-74
2021/04/02 01:27:23;;;;;;;8.55;3.63;;;;;;;;;;4976411;28;20035;-73
2021/04/02 01:29:56;;;;;;;10.13;4.22;;;;;;;;;;4976419;28;20065;-73
2021/04/02 01:32:27;;;;;;;8.75;4.22;;;;;;;;;;4993659;28;20084;-73
2021/04/02 01:34:55;;;;;;;9.38;4.25;;;;;;;;;;4993636;28;20069;-74
2021/04/02 01:37:24;;;;;;;7.72;4.32;;;;;;;;;;4976197;28;20479;-76
2021/04/02 01:39:50;;;;;;;10.15;3.80;;;;;;;;;;4976189;28;20084;-73
2021/04/02 01:42:18;;;;;;;10.32;4.50;;;;;;;;;;4976112;28;20118;-73
2021/04/02 01:44:45;;;;;;;8.77;4.30;;;;;;;;;;4976108;28;20570;-73
2021/04/02 01:47:12;;;;;;;8.35;3.92;;;;;;;;;;4973909;28;20517;-74
2021/04/02 01:49:38;;;;;;;8.88;4.50;;;;;;;;;;4992837;28;20537;-77
2021/04/02 01:52:08;;;;;;;9.48;4.38;;;;;;;;;;4992788;28;20018;-74
2021/04/02 01:54:34;;;;;;;7.38;4.30;;;;;;;;;;4993220;28;20038;-73
2021/04/02 01:57:01;;;;;;;10.32;4.03;;;;;;;;;;4993224;28;20104;-74
2021/04/02 01:59:27;;;;;;;6.95;3.70;;;;;;;;;;4993160;28;20479;-76
2021/04/02 02:01:53;;;;;;;11.00;4.93;;;;;;;;;;4993175;28;20614;-78
2021/04/02 02:04:21;;;;;;;11.70;4.65;;;;;;;;;;4975960;28;20037;-72
2021/04/02 02:06:48;;;;;;;8.52;4.25;;;;;;;;;;4975307;28;20042;-73
2021/04/02 02:09:15;;;;;;;8.82;4.18;;;;;;;;;;4993060;28;20030;-74
2021/04/02 02:11:42;;;;;;;10.82;4.00;;;;;;;;;;4992961;28;20081;-77
2021/04/02 02:14:09;;;;;;;10.05;4.15;;;;;;;;;;4992779;28;20025;-75
2021/04/02 02:16:36;;;;;;;13.88;5.03;;;;;;;;;;4992833;28;20038;-74
2021/04/02 02:19:06;;;;;;;8.23;4.30;;;;;;;;;;4975251;28;20132;-74
2021/04/02 02:21:32;;;;;;;10.75;4.20;;;;;;;;;;4992908;28;20046;-73
2021/04/02 02:23:58;;;;;;;8.60;4.13;;;;;;;;;;4992644;28;20081;-74
2021/04/02 02:26:25;;;;;;;9.80;4.70;;;;;;;;;;4993242;28;20473;-74
2021/04/02 02:28:51;;;;;;;9.52;4.18;;;;;;;;;;4992790;28;20030;-75
2021/04/02 02:31:17;;;;;;;11.10;3.90;;;;;;;;;;4992604;28;20470;-77
2021/04/02 02:33:43;;;;;;;7.20;3.72;;;;;;;;;;4975179;28;20030;-73
2021/04/02 02:36:09;;;;;;;8.82;3.80;;;;;;;;;;4975053;28;20029;-78
2021/04/02 02:38:36;;;;;;;10.43;4.45;;;;;;;;;;4992565;28;20090;-73
2021/04/02 02:41:02;;;;;;;8.70;4.00;;;;;;;;;;4992493;28;20022;-73
2021/04/02 02:43:28;;;;;;;10.45;3.80;;;;;;;;;;4975127;28;20026;-73
2021/04/02 02:45:55;;;;;;;9.68;4.10;;;;;;;;;;4975028;28;20041;-73
2021/04/02 02:48:21;;;;;;;9.75;3.83;;;;;;;;;;4992381;28;20023;-73
2021/04/02 02:50:50;;;;;;;8.80;3.88;;;;;;;;;;4992340;28;20479;-74
2021/04/02 02:53:17;;;;;;;9.13;3.70;;;;;;;;;;4992505;28;20479;-77
2021/04/02 02:55:45;;;;;;;8.55;3.85;;;;;;;;;;4992399;28;20028;-75
2021/04/02 02:58:13;;;;;;;9.50;3.80;;;;;;;;;;4974927;28;20085;-73
2021/04/02 03:00:43;;;;;;;8.18;3.78;;;;;;;;;;4974999;28;20034;-73
2021/04/02 03:03:15;;;;;;;11.38;4.10;;;;;;;;;;4992638;28;20105;-74
2021/04/02 03:05:41;;;;;;;10.93;4.13;;;;;;;;;;4992271;28;20114;-75
2021/04/02 03:08:09;;;;;;;9.52;4.50;;;;;;;;;;4992262;28;20491;-73
2021/04/02 03:10:36;;;;;;;8.57;3.75;;;;;;;;;;4992091;28;20022;-73
2021/04/02 03:13:03;;;;;;;11.00;4.78;;;;;;;;;;4992223;28;20030;-76
2021/04/02 03:15:30;;;;;;;11.25;4.63;;;;;;;;;;4974820;28;20029;-74
2021/04/02 03:17:57;;;;;;;11.88;4.65;;;;;;;;;;4974417;28;20511;-74
2021/04/02 03:20:25;;;;;;;9.38;4.53;;;;;;;;;;4992035;28;20056;-73
2021/04/02 03:22:52;;;;;;;7.20;3.75;;;;;;;;;;4992142;28;20061;-77
2021/04/02 03:25:20;;;;;;;6.72;4.15;;;;;;;;;;4992116;28;20479;-76
2021/04/02 03:27:47;;;;;;;7.63;3.92;;;;;;;;;;4991804;28;20031;-75
2021/04/02 03:30:15;;;;;;;8.85;4.47;;;;;;;;;;4974176;28;20483;-73
2021/04/02 03:32:42;;;;;;;8.45;4.07;;;;;;;;;;4974574;28;20038;-73
2021/04/02 03:35:10;;;;;;;9.65;4.20;;;;;;;;;;4992090;28;20014;-73
2021/04/02 03:37:37;;;;;;;11.35;4.53;;;;;;;;;;4991790;28;20544;-73
2021/04/02 03:40:05;;;;;;;8.88;4.30;;;;;;;;;;4974390;28;20026;-73
2021/04/02 03:42:32;;;;;;;10.20;4.50;;;;;;;;;;4992289;28;20027;-73
2021/04/02 03:45:00;;;;;;;7.05;3.95;;;;;;;;;;4995868;28;20027;-77
2021/04/02 03:47:27;;;;;;;10.10;4.32;;;;;;;;;;4976952;28;20376;-73
2021/04/02 03:49:54;;;;;;;10.43;4.82;;;;;;;;;;4991416;28;20033;-72
2021/04/02 03:52:24;;;;;;;8.80;4.20;;;;;;;;;;4978062;28;20116;-72
2021/04/02 03:54:51;;;;;;;11.38;4.53;;;;;;;;;;4995615;28;20028;-74
2021/04/02 03:57:19;;;;;;;13.18;4.68;;;;;;;;;;4978271;28;20030;-73
2021/04/02 03:59:46;;;;;;;9.82;4.63;;;;;;;;;;4978087;28;20110;-72
2021/04/02 04:02:13;;;;;;;11.13;5.03;;;;;;;;;;4978030;28;20038;-74
2021/04/02 04:04:40;;;;;;;9.45;4.43;;;;;;;;;;4995608;28;20376;-74
2021/04/02 04:07:08;;;;;;;10.45;4.78;;;;;;;;;;4995313;28;20117;-73
2021/04/02 04:09:35;;;;;;;12.73;4.43;;;;;;;;;;4977916;28;20372;-73
2021/04/02 04:12:02;;;;;;;10.75;4.47;;;;;;;;;;4977789;28;20057;-77
2021/04/02 04:14:30;;;;;;;9.10;4.20;;;;;;;;;;4977889;28;20113;-74
2021/04/02 04:16:57;;;;;;;8.13;4.00;;;;;;;;;;4977704;28;20387;-73
2021/04/02 04:19:24;;;;;;;8.38;4.13;;;;;;;;;;4994767;28;20104;-73
2021/04/02 04:21:52;;;;;;;8.63;4.35;;;;;;;;;;4995161;28;20030;-75
2021/04/02 04:24:20;;;;;;;9.75;4.13;;;;;;;;;;4977635;28;20019;-73
2021/04/02 04:26:48;;;;;;;9.82;4.22;;;;;;;;;;4977515;28;20073;-76
2021/04/02 04:29:28;;;;;;;10.68;4.68;;;;;;;;;;4977472;28;20084;-73
2021/04/02 04:31:55;;;;;;;12.10;4.65;;;;;;;;;;4977335;28;20030;-73
2021/04/02 04:34:22;;;;;;;12.65;5.88;;;;;;;;;;4977353;28;20023;-75
2021/04/02 04:36:49;;;;;;;13.18;6.32;;;;;;;;;;4977362;28;20064;-74
2021/04/02 04:39:15;;;;;;;11.15;5.53;;;;;;;;;;4977523;28;20066;-74
2021/04/02 04:41:42;;;;;;;12.07;6.25;;;;;;;;;;4977145;28;20030;-74
2021/04/02 04:44:10;;;;;;;12.43;5.85;;;;;;;;;;4994601;28;20044;-74
2021/04/02 04:46:36;;;;;;;11.98;5.90;;;;;;;;;;4977019;28;20062;-73
2021/04/02 04:49:02;;;;;;;12.25;6.07;;;;;;;;;;4994583;28;20033;-73
2021/04/02 04:51:30;;;;;;;10.25;5.28;;;;;;;;;;4977022;28;20018;-74
2021/04/02 04:53:56;;;;;;;11.68;6.32;;;;;;;;;;4993549;28;20050;-73
2021/04/02 04:56:24;;;;;;;13.60;6.32;;;;;;;;;;4993888;28;20101;-77
2021/04/02 04:58:52;;;;;;;11.02;6.07;;;;;;;;;;4994402;28;20026;-74
2021/04/02 05:01:19;;;;;;;12.45;5.65;;;;;;;;;;4994028;28;20053;-75
2021/04/02 05:03:45;;;;;;;11.13;5.50;;;;;;;;;;4976923;28;20025;-73
2021/04/02 05:06:12;;;;;;;11.38;5.75;;;;;;;;;;4994250;28;20031;-73
2021/04/02 05:08:45;;;;;;;9.80;4.72;;;;;;;;;;4994320;28;20026;-73
2021/04/02 05:11:13;;;;;;;11.32;4.95;;;;;;;;;;4994145;28;20026;-75
2021/04/02 05:13:40;;;;;;;9.20;4.70;;;;;;;;;;4976730;28;20022;-73
2021/04/02 05:16:06;;;;;;;10.05;5.13;;;;;;;;;;4994089;28;20014;-74
2021/04/02 05:18:33;;;;;;;10.82;5.28;;;;;;;;;;4994045;28;20101;-73
2021/04/02 05:20:59;;;;;;;15.13;5.18;;;;;;;;;;4993895;28;20097;-74
2021/04/02 05:23:25;;;;;;;9.73;5.07;;;;;;;;;;4976646;28;20434;-74
2021/04/02 05:25:51;;;;;;;9.18;5.20;;;;;;;;;;4993770;28;20053;-77
2021/04/02 05:28:18;;;;;;;10.65;5.70;;;;;;;;;;4993985;28;20030;-74
2021/04/02 05:30:44;;;;;;;11.70;6.00;;;;;;;;;;4976357;28;20022;-74
2021/04/02 05:33:10;;;;;;;11.25;5.22;;;;;;;;;;4993592;28;20357;-78
2021/04/02 05:35:36;;;;;;;12.68;4.65;;;;;;;;;;4976152;28;20026;-74
2021/04/02 05:38:03;;;;;;;9.27;5.00;;;;;;;;;;4993648;28;20026;-76
2021/04/02 05:40:30;;;;;;;10.15;4.57;;;;;;;;;;4993673;28;20152;-74
2021/04/02 05:42:56;;;;;;;9.75;4.97;;;;;;;;;;4976092;28;20030;-74
2021/04/02 05:45:23;;;;;;;9.82;4.88;;;;;;;;;;4993495;28;20101;-74
2021/04/02 05:47:52;;;;;;;13.07;5.30;;;;;;;;;;4993509;28;20038;-78
2021/04/02 05:50:19;;;;;;;8.10;4.68;;;;;;;;;;4976058;28;20022;-74
2021/04/02 05:52:47;;;;;;;9.80;4.97;;;;;;;;;;4993440;28;20102;-74
2021/04/02 05:55:14;;;;;;;10.82;4.55;;;;;;;;;;4993379;28;20019;-75
2021/04/02 05:57:40;;;;;;;13.43;5.20;;;;;;;;;;4993208;28;20546;-73
2021/04/02 06:00:06;;;;;;;11.02;5.13;;;;;;;;;;4993342;28;20030;-76
2021/04/02 06:02:33;;;;;;;11.75;5.35;;;;;;;;;;4975896;28;20027;-74
2021/04/02 06:05:00;;;;;;;11.07;4.50;;;;;;;;;;4975304;28;20034;-75
2021/04/02 06:07:27;;;;;;;13.20;5.18;;;;;;;;;;4992094;28;20058;-74
2021/04/02 06:09:53;;;;;;;11.07;4.55;;;;;;;;;;4992453;28;20073;-74
2021/04/02 06:12:23;;;;;;;12.02;5.13;;;;;;;;;;4992135;28;20029;-75
2021/04/02 06:14:50;;;;;;;10.10;4.85;;;;;;;;;;4974682;28;20050;-76
2021/04/02 06:17:16;;;;;;;10.98;4.50;;;;;;;;;;4974519;28;20022;-74
2021/04/02 06:19:42;;;;;;;11.52;5.05;;;;;;;;;;4992318;28;20105;-74
2021/04/02 06:22:08;;;;;;;10.45;4.90;;;;;;;;;;4992351;28;20026;-76
2021/04/02 06:24:34;;;;;;;12.52;4.90;;;;;;;;;;4974681;28;20161;-74
2021/04/02 06:27:01;;;;;;;12.65;4.97;;;;;;;;;;4974714;28;20135;-73
2021/04/02 06:29:28;;;;;;;11.85;5.20;;;;;;;;;;4992372;28;20170;-74
2021/04/02 06:31:54;;;;;;;9.65;5.10;;;;;;;;;;4974590;28;20551;-74
2021/04/02 06:34:21;;;;;;;12.60;5.20;;;;;;;;;;4992267;28;20101;-73
2021/04/02 06:36:48;;;;;;;13.05;5.32;;;;;;;;;;4992689;28;20022;-74
2021/04/02 06:39:15;;;;;;;10.88;5.20;;;;;;;;;;4992590;28;20027;-74
2021/04/02 06:41:41;;;;;;;10.50;5.03;;;;;;;;;;4992631;28;20061;-74
2021/04/02 06:44:09;;;;;;;9.82;4.65;;;;;;;;;;4992902;28;20014;-74
2021/04/02 06:46:37;;;;;;;12.80;5.13;;;;;;;;;;4975078;28;20022;-79
2021/04/02 06:49:10;;;;;;;11.27;4.82;;;;;;;;;;4975117;28;20502;-75
2021/04/02 06:51:53;;;;;;;17.15;5.00;;;;;;;;;;4974834;28;20558;-79
2021/04/02 06:54:22;;;;;;;10.30;5.30;;;;;;;;;;4974725;28;20076;-74
2021/04/02 06:57:08;;;;;;;9.02;5.28;;;;;;;;;;4992271;28;20021;-74
2021/04/02 06:59:35;;;;;;;13.98;4.80;;;;;;;;;;4992148;28;20033;-74
2021/04/02 07:02:04;;;;;;;12.25;5.07;;;;;;;;;;4972535;28;20054;-77
2021/04/02 07:04:31;;;;;;;11.90;4.95;;;;;;;;;;4992208;28;20026;-74
2021/04/02 07:06:59;;;;;;;10.88;4.72;;;;;;;;;;4974440;28;20197;-75
2021/04/02 07:09:26;;;;;;;8.45;3.97;;;;;;;;;;4974621;28;20023;-73
2021/04/02 07:11:53;;;;;;;10.57;3.85;;;;;;;;;;4992252;28;20026;-75
2021/04/02 07:14:20;;;;;;;10.80;4.35;;;;;;;;;;4974592;28;20404;-77
2021/04/02 07:16:47;;;;;;;8.70;4.18;;;;;;;;;;4974669;28;20023;-77
2021/04/02 07:19:13;;;;;;;8.13;3.65;;;;;;;;;;4995122;28;20125;-75
2021/04/02 07:21:39;;;;;;;11.48;3.55;;;;;;;;;;4995936;28;20368;-75
2021/04/02 07:24:06;;;;;;;10.25;4.18;;;;;;;;;;4996176;28;20146;-75
2021/04/02 07:26:32;;;;;;;7.93;3.78;;;;;;;;;;4978591;28;20100;-78
2021/04/02 07:28:59;;;;;;;9.93;3.97;;;;;;;;;;4996039;28;20030;-73
2021/04/02 07:31:25;;;;;;;9.45;3.70;;;;;;;;;;4978425;28;20029;-78
2021/04/02 07:33:53;;;;;;;10.45;4.07;;;;;;;;;;4995791;28;20073;-74
2021/04/02 07:36:20;;;;;;;8.05;3.95;;;;;;;;;;4978217;28;20406;-73
2021/04/02 07:38:52;;;;;;;7.97;3.47;;;;;;;;;;4978236;28;20022;-74
2021/04/02 07:41:19;;;;;;;8.15;3.63;;;;;;;;;;4994881;28;20395;-74
2021/04/02 07:43:56;;;;;;;8.20;3.45;;;;;;;;;;4995719;28;20031;-74
2021/04/02 07:46:25;;;;;;;7.63;3.50;;;;;;;;;;4995611;28;20080;-75
2021/04/02 07:49:10;;;;;;;9.85;3.83;;;;;;;;;;4978211;28;20458;-74
2021/04/02 07:51:43;;;;;;;8.55;3.58;;;;;;;;;;4978053;28;20018;-74
2021/04/02 07:54:14;;;;;;;7.88;3.63;;;;;;;;;;4995662;28;20052;-77
2021/04/02 07:56:40;;;;;;;8.98;4.15;;;;;;;;;;4995644;28;20054;-75
2021/04/02 07:59:07;;;;;;;7.30;3.38;;;;;;;;;;4978097;28;20133;-74
2021/04/02 08:01:34;;;;;;;8.80;3.30;;;;;;;;;;4995471;28;20022;-75
2021/04/02 08:04:01;;;;;;;9.80;3.65;;;;;;;;;;4995463;28;20057;-74
2021/04/02 08:06:27;;;;;;;8.55;3.47;;;;;;;;;;4977726;28;20126;-79
2021/04/02 08:08:53;;;;;;;7.82;3.55;;;;;;;;;;4995203;28;20046;-75
2021/04/02 08:11:27;;;;;;;7.03;3.25;;;;;;;;;;4977767;28;20033;-78
2021/04/02 08:13:55;;;;;;;6.25;3.15;;;;;;;;;;4977852;28;20023;-75
2021/04/02 08:16:33;;;;;;;6.90;3.42;;;;;;;;;;4995334;28;20026;-75
2021/04/02 08:19:00;;;;;;;8.88;3.20;;;;;;;;;;4994719;28;20081;-75
2021/04/02 08:21:27;;;;;;;8.23;3.58;;;;;;;;;;4994980;28;20026;-75
2021/04/02 08:23:53;;;;;;;8.43;3.75;;;;;;;;;;4977651;28;20383;-75
2021/04/02 08:26:19;;;;;;;8.80;3.65;;;;;;;;;;4995090;28;20101;-80
2021/04/02 08:28:45;;;;;;;11.55;3.45;;;;;;;;;;4994899;28;20114;-79
2021/04/02 08:31:12;;;;;;;10.52;3.65;;;;;;;;;;5002892;28;20568;-78
2021/04/02 08:33:38;;;;;;;8.18;3.20;;;;;;;;;;4996848;28;20060;-79
2021/04/02 08:36:04;;;;;;;7.45;3.30;;;;;;;;;;5014279;28;20057;-76
2021/04/02 08:38:30;;;;;;;7.95;3.50;;;;;;;;;;5014578;28;20022;-76
2021/04/02 08:41:14;;;;;;;11.07;4.55;;;;;;;;;;4996718;28;20030;-75
2021/04/02 08:43:41;;;;;;;10.90;3.83;;;;;;;;;;5014422;28;20022;-80
2021/04/02 08:46:07;;;;;;;8.90;3.33;;;;;;;;;;4996460;28;20026;-77
2021/04/02 08:48:33;;;;;;;10.25;3.58;;;;;;;;;;5014195;28;20026;-74
2021/04/02 08:50:59;;;;;;;13.20;3.47;;;;;;;;;;4996416;28;20080;-76
2021/04/02 08:53:25;;;;;;;7.15;3.38;;;;;;;;;;4996444;28;20375;-75
2021/04/02 08:55:54;;;;;;;8.55;3.10;;;;;;;;;;4996517;28;20040;-75
2021/04/02 08:58:20;;;;;;;10.90;2.78;;;;;;;;;;4996383;28;20030;-77
2021/04/02 09:00:46;;;;;;;8.40;3.08;;;;;;;;;;4996172;28;20026;-74
2021/04/02 09:03:13;;;;;;;8.25;3.33;;;;;;;;;;4974453;28;20062;-84
2021/04/02 09:05:39;;;;;;;10.52;3.30;;;;;;;;;;4994304;28;20472;-77
2021/04/02 09:08:05;;;;;;;15.77;3.40;;;;;;;;;;4976800;28;20050;-75
2021/04/02 09:10:31;;;;;;;12.65;2.83;;;;;;;;;;4976826;28;20096;-78
2021/04/02 09:12:57;;;;;;;9.07;2.90;;;;;;;;;;4994307;28;20463;-79
2021/04/02 09:15:25;;;;;;;38.60;3.70;;;;;;;;;;4976670;28;20479;-81
2021/04/02 09:17:51;;;;;;;26.23;3.42;;;;;;;;;;4976477;28;20046;-80
2021/04/02 09:20:18;;;;;;;8.30;2.92;;;;;;;;;;4994084;28;20427;-79
2021/04/02 09:22:46;;;;;;;8.57;2.95;;;;;;;;;;4994158;28;20042;-78
2021/04/02 09:25:14;;;;;;;10.27;2.88;;;;;;;;;;4976550;28;20037;-79
2021/04/02 09:27:40;;;;;;;10.15;3.20;;;;;;;;;;4976460;28;20042;-82
2021/04/02 09:30:07;;;;;;;11.95;2.97;;;;;;;;;;4976302;28;20026;-78
2021/04/02 09:32:34;;;;;;;8.48;2.83;;;;;;;;;;4993881;28;20018;-78
2021/04/02 09:35:01;;;;;;;5.60;2.88;;;;;;;;;;4976388;28;20040;-79
2021/04/02 09:37:28;;;;;;;8.90;3.10;;;;;;;;;;4976354;28;20022;-79
2021/04/02 09:40:06;;;;;;;10.60;3.10;;;;;;;;;;4993481;28;20022;-78
2021/04/02 09:42:37;;;;;;;9.13;3.00;;;;;;;;;;4975013;28;20081;-77
2021/04/02 09:45:05;;;;;;;9.35;3.72;;;;;;;;;;4976094;28;20022;-78
2021/04/02 09:47:38;;;;;;;7.40;2.80;;;;;;;;;;4975919;28;20148;-82
2021/04/02 09:50:05;;;;;;;12.82;3.13;;;;;;;;;;4993559;28;20019;-77
2021/04/02 09:52:31;;;;;;;8.05;3.35;;;;;;;;;;4975909;28;20026;-77
2021/04/02 09:54:57;;;;;;;11.30;3.38;;;;;;;;;;4993551;28;20029;-83
2021/04/02 09:57:23;;;;;;;11.57;3.03;;;;;;;;;;4993616;28;20062;-82
2021/04/02 09:59:50;;;;;;;8.80;2.63;;;;;;;;;;4993643;28;20023;-80
2021/04/02 10:02:16;;;;;;;19.10;3.90;;;;;;;;;;4993724;28;20037;-76
2021/04/02 10:04:42;;;;;;;13.05;3.17;;;;;;;;;;4993798;28;20018;-81
2021/04/02 10:07:08;;;;;;;10.18;3.60;;;;;;;;;;4993253;28;20565;-81
2021/04/02 10:09:34;;;;;;;8.82;2.95;;;;;;;;;;4975700;28;20382;-77
2021/04/02 10:12:00;;;;;;;16.45;3.67;;;;;;;;;;4993069;28;20054;-79
2021/04/02 10:14:26;;;;;;;13.52;3.17;;;;;;;;;;4975660;28;20026;-85
2021/04/02 10:16:52;;;;;;;16.70;6.70;;;;;;;;;;4992956;28;20065;-82
2021/04/02 10:19:19;;;;;;;15.95;5.85;;;;;;;;;;4992055;28;20557;-77
2021/04/02 10:21:46;;;;;;;17.90;5.10;;;;;;;;;;4991874;28;20026;-82
2021/04/02 10:24:13;;;;;;;19.38;4.95;;;;;;;;;;4974945;28;20548;-78
2021/04/02 10:26:39;;;;;;;14.90;3.80;;;;;;;;;;4992725;28;20034;-82
2021/04/02 10:29:06;;;;;;;16.50;4.25;;;;;;;;;;4975484;28;20022;-82
2021/04/02 10:31:32;;;;;;;9.45;3.50;;;;;;;;;;4975396;28;20034;-78
2021/04/02 10:33:58;;;;;;;13.75;4.28;;;;;;;;;;4992979;28;20053;-82
2021/04/02 10:36:25;;;;;;;14.52;3.75;;;;;;;;;;4993109;28;20022;-82
2021/04/02 10:38:51;;;;;;;11.50;3.70;;;;;;;;;;4975310;28;20050;-82
2021/04/02 10:41:17;;;;;;;11.73;3.50;;;;;;;;;;4992809;28;20029;-81
2021/04/02 10:43:43;;;;;;;9.52;3.42;;;;;;;;;;4992972;28;20034;-79
2021/04/02 10:46:11;;;;;;;8.63;3.08;;;;;;;;;;4992854;28;20027;-78
2021/04/02 10:48:37;;;;;;;9.43;3.30;;;;;;;;;;4992692;28;20479;-81
2021/04/02 10:51:04;;;;;;;9.57;3.42;;;;;;;;;;4975340;28;20026;-78
2021/04/02 10:53:30;;;;;;;10.65;3.53;;;;;;;;;;4975223;28;20018;-79
2021/04/02 10:56:00;;;;;;;12.93;3.50;;;;;;;;;;4992562;28;20368;-79
2021/04/02 10:58:26;;;;;;;8.48;3.47;;;;;;;;;;4974974;28;20029;-82
2021/04/02 11:00:52;;;;;;;8.98;3.13;;;;;;;;;;4974908;28;20014;-81
2021/04/02 11:03:18;;;;;;;9.15;3.10;;;;;;;;;;4973213;28;20034;-82
2021/04/02 11:05:44;;;;;;;7.82;3.22;;;;;;;;;;4992480;28;20026;-82
2021/04/02 11:08:11;;;;;;;7.60;3.20;;;;;;;;;;4975164;28;20104;-82
2021/04/02 11:10:37;;;;;;;8.65;3.25;;;;;;;;;;4992651;28;20061;-81
2021/04/02 11:13:03;;;;;;;8.95;3.10;;;;;;;;;;4975123;28;20061;-81
2021/04/02 11:15:29;;;;;;;8.30;2.67;;;;;;;;;;4975022;28;20047;-81
2021/04/02 11:17:57;;;;;;;4.80;2.40;;;;;;;;;;4992278;28;20101;-81
2021/04/02 11:20:26;;;;;;;5.78;2.60;;;;;;;;;;4992597;28;20041;-81
2021/04/02 11:22:52;;;;;;;6.68;2.65;;;;;;;;;;4974949;28;20548;-81
2021/04/02 11:25:18;;;;;;;7.40;2.85;;;;;;;;;;4974891;28;20073;-78
2021/04/02 11:27:45;;;;;;;5.85;2.53;;;;;;;;;;4992070;28;20113;-82
2021/04/02 11:30:12;;;;;;;10.45;2.88;;;;;;;;;;4974831;28;20500;-81
2021/04/02 11:32:39;;;;;;;5.32;2.70;;;;;;;;;;4974781;28;20033;-77
2021/04/02 11:35:06;;;;;;;8.05;3.20;;;;;;;;;;4974769;28;20026;-81
2021/04/02 11:37:32;;;;;;;11.82;3.55;;;;;;;;;;4992047;28;20026;-77
2021/04/02 11:39:58;;;;;;;7.35;3.30;;;;;;;;;;4991988;28;20023;-78
2021/04/02 11:42:24;;;;;;;7.75;2.70;;;;;;;;;;4992060;28;20019;-78
2021/04/02 11:44:50;;;;;;;6.95;3.20;;;;;;;;;;4992254;28;20027;-77
2021/04/02 11:47:16;;;;;;;6.55;3.60;;;;;;;;;;4992104;28;20034;-77
2021/04/02 11:49:42;;;;;;;7.35;2.97;;;;;;;;;;4988058;28;20607;-79
2021/04/02 11:52:09;;;;;;;6.75;3.30;;;;;;;;;;4991424;28;20030;-78
2021/04/02 11:54:35;;;;;;;9.63;3.75;;;;;;;;;;4973802;28;20019;-80
2021/04/02 11:57:01;;;;;;;6.13;3.15;;;;;;;;;;4992031;28;20050;-80
2021/04/02 11:59:28;;;;;;;8.75;3.47;;;;;;;;;;4991996;28;20494;-79
2021/04/02 12:01:54;;;;;;;5.45;2.80;;;;;;;;;;4991838;28;20073;-78
2021/04/02 12:04:20;;;;;;;6.43;2.92;;;;;;;;;;4993352;28;20014;-79
2021/04/02 12:06:46;;;;;;;6.32;3.92;;;;;;;;;;4977914;28;20109;-79
2021/04/02 12:09:12;;;;;;;6.43;3.00;;;;;;;;;;4978083;28;20564;-78
2021/04/02 12:11:39;;;;;;;6.05;3.42;;;;;;;;;;4978169;28;20026;-80
2021/04/02 12:14:06;;;;;;;5.68;2.75;;;;;;;;;;4995622;28;20018;-78
2021/04/02 12:16:32;;;;;;;9.77;3.75;;;;;;;;;;4977245;28;20426;-79
2021/04/02 12:18:58;;;;;;;6.47;2.85;;;;;;;;;;4977904;28;20050;-79
2021/04/02 12:21:25;;;;;;;7.90;3.83;;;;;;;;;;4995494;28;20109;-79
2021/04/02 12:23:51;;;;;;;5.28;3.17;;;;;;;;;;4995354;28;20015;-79
2021/04/02 12:26:17;;;;;;;6.55;3.28;;;;;;;;;;4977779;28;20380;-77
2021/04/02 12:28:43;;;;;;;7.70;3.50;;;;;;;;;;4995289;28;20023;-79
2021/04/02 12:31:09;;;;;;;8.20;3.95;;;;;;;;;;4995088;28;20491;-79
2021/04/02 12:33:35;;;;;;;5.60;3.13;;;;;;;;;;4977826;28;20026;-78
2021/04/02 12:36:01;;;;;;;9.98;3.60;;;;;;;;;;4977771;28;20478;-78
2021/04/02 12:38:28;;;;;;;6.15;2.88;;;;;;;;;;4995155;28;20030;-78
2021/04/02 12:40:54;;;;;;;6.53;3.55;;;;;;;;;;4977844;28;20026;-79
2021/04/02 12:43:20;;;;;;;6.70;3.10;;;;;;;;;;4994993;28;20027;-79
2021/04/02 12:45:46;;;;;;;7.60;3.08;;;;;;;;;;4977412;28;20029;-79
2021/04/02 12:48:13;;;;;;;7.88;3.45;;;;;;;;;;4994802;28;20026;-77
2021/04/02 12:50:39;;;;;;;6.95;3.70;;;;;;;;;;4977109;28;20109;-78
2021/04/02 12:53:05;;;;;;;6.47;3.75;;;;;;;;;;4977361;28;20022;-76
2021/04/02 12:55:32;;;;;;;5.90;3.65;;;;;;;;;;4977426;28;20092;-78
2021/04/02 12:57:58;;;;;;;6.60;3.60;;;;;;;;;;4994864;28;20058;-79
2021/04/02 13:00:28;;;;;;;5.85;2.78;;;;;;;;;;4994645;28;20031;-78
2021/04/02 13:02:54;;;;;;;6.30;3.13;;;;;;;;;;4994802;28;20049;-77
2021/04/02 13:05:22;;;;;;;5.97;3.40;;;;;;;;;;4994730;28;20061;-79
2021/04/02 13:07:49;;;;;;;8.82;3.00;;;;;;;;;;4994385;28;20080;-79
2021/04/02 13:10:15;;;;;;;5.85;2.88;;;;;;;;;;4994489;28;20014;-79
2021/04/02 13:12:42;;;;;;;5.95;3.22;;;;;;;;;;4994466;28;20036;-79
2021/04/02 13:15:10;;;;;;;6.20;3.40;;;;;;;;;;4993808;28;20023;-78
2021/04/02 13:17:36;;;;;;;5.57;3.00;;;;;;;;;;4994097;28;20027;-77
2021/04/02 13:20:03;;;;;;;5.05;2.88;;;;;;;;;;4977069;28;20026;-76
2021/04/02 13:22:29;;;;;;;5.78;2.72;;;;;;;;;;4994468;28;20131;-78
2021/04/02 13:24:55;;;;;;;5.50;2.95;;;;;;;;;;4976698;28;20026;-77
2021/04/02 13:27:21;;;;;;;7.20;2.80;;;;;;;;;;4994537;28;20046;-77
2021/04/02 13:29:47;;;;;;;7.35;3.00;;;;;;;;;;4976723;28;20120;-79
2021/04/02 13:32:14;;;;;;;6.47;2.88;;;;;;;;;;4976649;28;20019;-76
2021/04/02 13:34:40;;;;;;;5.38;2.75;;;;;;;;;;4976557;28;20034;-76
2021/04/02 13:37:06;;;;;;;4.85;2.60;;;;;;;;;;4976550;28;20117;-78
2021/04/02 13:39:32;;;;;;;6.45;2.70;;;;;;;;;;4994119;28;20073;-78
2021/04/02 13:41:58;;;;;;;8.98;3.50;;;;;;;;;;4994146;28;20101;-78
2021/04/02 13:44:24;;;;;;;6.32;3.58;;;;;;;;;;4994004;28;20028;-78
2021/04/02 13:46:50;;;;;;;4.65;2.60;;;;;;;;;;4976174;28;20030;-79
2021/04/02 13:49:16;;;;;;;5.43;3.28;;;;;;;;;;4976199;28;20030;-76
2021/04/02 13:51:43;;;;;;;6.18;2.92;;;;;;;;;;4993747;28;20054;-78
2021/04/02 13:54:10;;;;;;;5.45;2.90;;;;;;;;;;4993475;28;20460;-76
2021/04/02 13:56:37;;;;;;;5.70;2.95;;;;;;;;;;4993728;28;20533;-77
2021/04/02 13:59:03;;;;;;;5.15;3.00;;;;;;;;;;4975994;28;20068;-79
2021/04/02 14:01:29;;;;;;;4.50;2.50;;;;;;;;;;4993563;28;20069;-77
2021/04/02 14:03:55;;;;;;;5.25;2.63;;;;;;;;;;4975891;28;20030;-78
2021/04/02 14:06:21;;;;;;;4.30;2.50;;;;;;;;;;4975741;28;20151;-78
2021/04/02 14:08:47;;;;;;;8.15;3.83;;;;;;;;;;4993476;28;20607;-76
2021/04/02 14:11:13;;;;;;;4.22;2.60;;;;;;;;;;4993153;28;20023;-79
2021/04/02 14:13:39;;;;;;;5.75;2.78;;;;;;;;;;4993073;28;20084;-79
2021/04/02 14:16:05;;;;;;;7.10;2.72;;;;;;;;;;4993141;28;20026;-79
2021/04/02 14:18:31;;;;;;;6.85;3.20;;;;;;;;;;4992856;28;20050;-78
2021/04/02 14:20:59;;;;;;;9.68;4.05;;;;;;;;;;4975603;28;20058;-79
2021/04/02 14:23:25;;;;;;;5.95;3.20;;;;;;;;;;4975627;28;20022;-78
2021/04/02 14:25:52;;;;;;;6.70;3.67;;;;;;;;;;4992830;28;20537;-77
2021/04/02 14:28:18;;;;;;;6.78;3.70;;;;;;;;;;4992848;28;20030;-78
2021/04/02 14:30:46;;;;;;;8.65;3.85;;;;;;;;;;4992933;28;20026;-78
2021/04/02 14:33:12;;;;;;;7.30;3.28;;;;;;;;;;4992802;28;20518;-75
2021/04/02 14:35:40;;;;;;;10.07;4.07;;;;;;;;;;4975350;28;20022;-79
2021/04/02 14:38:08;;;;;;;7.13;4.47;;;;;;;;;;4992683;28;20015;-78